createdAt,value
2019-03-28T00:00:24.306Z,56.76
2019-03-28T00:02:53.009Z,56.54
2019-03-28T00:05:21.717Z,56.47
2019-03-28T00:07:59.106Z,56.56
2019-03-28T00:10:27.813Z,56.91
2019-03-28T00:12:56.824Z,58.69
2019-03-28T00:15:25.567Z,58.18
2019-03-28T00:17:54.278Z,58.09
2019-03-28T00:20:22.997Z,58.06
2019-03-28T00:22:56.788Z,58.24
2019-03-28T00:25:26.997Z,58.25
2019-03-28T00:27:55.705Z,58.24
2019-03-28T00:30:24.457Z,58.74
2019-03-28T00:32:53.173Z,59.21
2019-03-28T00:35:21.885Z,59.41
2019-03-28T00:37:55.967Z,59.46
2019-03-28T00:40:24.679Z,59.44
2019-03-28T00:42:53.392Z,59.64
2019-03-28T00:45:22.160Z,60.13
2019-03-28T00:47:50.866Z,60.46
2019-03-28T00:50:19.567Z,60.39
2019-03-28T00:52:48.308Z,60.54
2019-03-28T00:55:17.060Z,60.52
2019-03-28T00:57:45.728Z,60.57
2019-03-28T01:00:16.832Z,61.11
2019-03-28T01:02:46.059Z,61.33
2019-03-28T01:05:15.330Z,61.28
2019-03-28T01:07:44.086Z,61.39
2019-03-28T01:10:14.002Z,61.53
2019-03-28T01:12:42.731Z,62.00
2019-03-28T01:15:11.504Z,62.47
2019-03-28T01:17:40.210Z,62.86
2019-03-28T01:20:10.227Z,63.52
2019-03-28T01:22:40.155Z,64.29
2019-03-28T01:25:08.878Z,64.78
2019-03-28T01:27:37.594Z,64.97
2019-03-28T01:30:09.597Z,65.88
2019-03-28T01:32:38.313Z,66.14
2019-03-28T01:35:07.143Z,66.95
2019-03-28T01:37:35.925Z,67.24
2019-03-28T01:40:06.442Z,67.82
2019-03-28T01:42:35.147Z,68.03
2019-03-28T01:45:04.798Z,68.42
2019-03-28T01:47:33.501Z,68.65
2019-03-28T01:50:02.219Z,68.61
2019-03-28T01:52:30.971Z,68.79
2019-03-28T01:54:59.689Z,68.99
2019-03-28T01:57:28.388Z,68.85
2019-03-28T01:59:57.152Z,69.99
2019-03-28T02:02:25.861Z,70.91
2019-03-28T02:04:54.569Z,71.34
2019-03-28T02:07:23.320Z,71.40
2019-03-28T02:09:52.033Z,71.85
2019-03-28T02:12:20.733Z,71.67
2019-03-28T02:14:59.286Z,72.11
2019-03-28T02:17:27.995Z,72.58
2019-03-28T02:19:56.706Z,73.81
2019-03-28T02:22:25.454Z,75.32
2019-03-28T02:24:54.162Z,75.91
2019-03-28T02:27:24.394Z,76.76
2019-03-28T02:29:57.318Z,77.45
2019-03-28T02:32:26.019Z,77.92
2019-03-28T02:34:54.735Z,78.22
2019-03-28T02:37:23.596Z,78.90
2019-03-28T02:39:52.304Z,78.49
2019-03-28T02:42:21.010Z,78.90
2019-03-28T02:44:56.720Z,79.00
2019-03-28T02:47:25.421Z,79.33
2019-03-28T02:49:54.123Z,79.79
2019-03-28T02:52:22.881Z,79.47
2019-03-28T02:54:58.056Z,79.66
2019-03-28T02:57:40.165Z,79.71
2019-03-28T02:59:58.050Z,79.85
2019-03-28T03:02:26.768Z,80.31
2019-03-28T03:04:55.540Z,80.61
2019-03-28T03:07:24.292Z,80.89
2019-03-28T03:09:52.995Z,81.14
2019-03-28T03:12:21.714Z,80.91
2019-03-28T03:14:59.382Z,80.93
2019-03-28T03:17:28.091Z,80.72
2019-03-28T03:19:56.802Z,80.44
2019-03-28T03:22:25.547Z,79.78
2019-03-28T03:24:54.268Z,80.13
2019-03-28T03:27:22.967Z,79.93
2019-03-28T03:29:57.341Z,79.46
2019-03-28T03:32:26.059Z,79.18
2019-03-28T03:34:54.758Z,79.09
2019-03-28T03:37:23.536Z,78.72
2019-03-28T03:39:52.251Z,78.88
2019-03-28T03:42:20.949Z,79.14
2019-03-28T03:44:56.654Z,79.06
2019-03-28T03:47:25.365Z,79.21
2019-03-28T03:49:54.075Z,79.73
2019-03-28T03:52:22.840Z,79.83
2019-03-28T03:54:51.532Z,80.39
2019-03-28T03:57:20.238Z,80.28
2019-03-28T03:59:56.925Z,79.91
2019-03-28T04:02:25.631Z,80.40
2019-03-28T04:04:56.573Z,79.78
2019-03-28T04:07:24.825Z,79.86
2019-03-28T04:09:53.534Z,79.87
2019-03-28T04:12:22.239Z,80.73
2019-03-28T04:14:58.870Z,81.37
2019-03-28T04:17:27.572Z,80.92
2019-03-28T04:19:56.267Z,79.98
2019-03-28T04:22:25.031Z,79.80
2019-03-28T04:24:53.732Z,79.46
2019-03-28T04:27:22.440Z,79.50
2019-03-28T04:29:57.430Z,79.27
2019-03-28T04:32:26.132Z,79.01
2019-03-28T04:34:54.844Z,78.93
2019-03-28T04:37:23.596Z,78.72
2019-03-28T04:39:52.307Z,78.57
2019-03-28T04:42:21.012Z,78.55
2019-03-28T04:47:37.614Z,78.48
2019-03-28T04:50:07.379Z,78.07
2019-03-28T04:52:36.100Z,78.22
2019-03-28T04:55:06.304Z,77.92
2019-03-28T04:57:35.059Z,77.59
2019-03-28T05:00:04.262Z,77.47
2019-03-28T05:02:32.968Z,77.15
2019-03-28T05:05:01.713Z,76.92
2019-03-28T05:07:30.423Z,76.50
2019-03-28T05:09:59.127Z,75.95
2019-03-28T05:12:27.883Z,75.70
2019-03-28T05:14:56.602Z,75.21
2019-03-28T05:17:25.309Z,75.32
2019-03-28T05:20:00.020Z,75.08
2019-03-28T05:22:28.735Z,74.73
2019-03-28T05:24:57.428Z,74.39
2019-03-28T05:27:26.199Z,74.03
2019-03-28T05:29:54.909Z,73.01
2019-03-28T05:32:23.611Z,73.21
2019-03-28T05:34:58.897Z,72.62
2019-03-28T05:37:27.600Z,72.46
2019-03-28T05:39:56.306Z,71.93
2019-03-28T05:42:25.044Z,71.90
2019-03-28T05:44:53.739Z,71.19
2019-03-28T05:47:22.438Z,70.89
2019-03-28T05:49:59.600Z,71.03
2019-03-28T05:52:29.161Z,71.22
2019-03-28T05:54:57.966Z,71.25
2019-03-28T05:57:26.710Z,71.33
2019-03-28T05:59:55.415Z,70.83
2019-03-28T06:02:24.555Z,70.42
2019-03-28T06:04:58.782Z,70.32
2019-03-28T06:07:27.476Z,70.71
2019-03-28T06:09:56.179Z,70.78
2019-03-28T06:12:24.943Z,70.13
2019-03-28T06:14:53.641Z,70.21
2019-03-28T06:17:22.353Z,70.57
2019-03-28T06:19:57.659Z,70.56
2019-03-28T06:22:26.368Z,70.45
2019-03-28T06:24:55.076Z,69.69
2019-03-28T06:27:23.827Z,68.59
2019-03-28T06:29:52.693Z,67.27
2019-03-28T06:32:21.416Z,67.21
2019-03-28T06:34:56.798Z,67.54
2019-03-28T06:37:25.494Z,66.99
2019-03-28T06:39:54.207Z,67.36
2019-03-28T06:42:22.955Z,68.17
2019-03-28T06:44:51.657Z,67.79
2019-03-28T06:47:21.239Z,66.92
2019-03-28T06:49:57.552Z,65.81
2019-03-28T06:52:26.251Z,64.70
2019-03-28T06:54:54.950Z,66.01
2019-03-28T06:57:23.691Z,66.71
2019-03-28T06:59:52.390Z,66.45
2019-03-28T07:02:22.056Z,67.14
2019-03-28T07:04:57.650Z,66.19
2019-03-28T07:07:26.368Z,66.73
2019-03-28T07:09:55.064Z,65.25
2019-03-28T07:12:23.827Z,65.63
2019-03-28T07:14:52.535Z,65.07
2019-03-28T07:17:21.248Z,66.50
2019-03-28T07:19:57.486Z,66.60
2019-03-28T07:22:26.194Z,66.53
2019-03-28T07:24:57.435Z,66.79
2019-03-28T07:27:26.289Z,67.60
2019-03-28T07:29:54.999Z,68.37
2019-03-28T07:32:23.714Z,68.32
2019-03-28T07:34:57.551Z,67.79
2019-03-28T07:37:28.080Z,67.86
2019-03-28T07:39:56.735Z,68.27
2019-03-28T07:42:25.449Z,67.20
2019-03-28T07:44:58.183Z,66.00
2019-03-28T07:47:27.209Z,65.86
2019-03-28T07:49:58.870Z,66.12
2019-03-28T07:52:27.840Z,66.56
2019-03-28T07:54:56.569Z,66.72
2019-03-28T07:57:25.268Z,66.10
2019-03-28T08:00:04.105Z,66.58
2019-03-28T08:02:26.806Z,65.81
2019-03-28T08:04:55.517Z,65.54
2019-03-28T08:07:24.262Z,64.75
2019-03-28T08:09:52.965Z,64.49
2019-03-28T08:12:23.232Z,64.84
2019-03-28T08:14:59.583Z,64.65
2019-03-28T08:17:28.285Z,64.16
2019-03-28T08:19:57.038Z,63.64
2019-03-28T08:22:25.737Z,63.62
2019-03-28T08:24:54.453Z,63.48
2019-03-28T08:27:23.189Z,62.96
2019-03-28T08:29:51.908Z,62.49
2019-03-28T08:32:22.189Z,62.44
2019-03-28T08:34:59.509Z,62.41
2019-03-28T08:37:28.621Z,62.47
2019-03-28T08:39:57.342Z,61.78
2019-03-28T08:42:26.044Z,62.17
2019-03-28T08:44:56.996Z,62.44
2019-03-28T08:47:25.712Z,62.79
2019-03-28T08:49:58.909Z,61.80
2019-03-28T08:52:27.789Z,62.00
2019-03-28T08:54:56.888Z,61.50
2019-03-28T08:57:25.608Z,61.41
2019-03-28T08:59:57.103Z,60.41
2019-03-28T09:02:25.808Z,60.73
2019-03-28T09:04:57.848Z,60.49
2019-03-28T09:07:26.571Z,59.00
2019-03-28T09:09:55.289Z,58.19
2019-03-28T09:12:24.012Z,58.15
2019-03-28T09:14:52.804Z,57.30
2019-03-28T09:17:23.849Z,56.86
2019-03-28T09:19:52.008Z,55.99
2019-03-28T09:22:20.725Z,56.39
2019-03-28T09:24:56.830Z,55.79
2019-03-28T09:27:25.547Z,55.06
2019-03-28T09:29:56.826Z,55.12
2019-03-28T09:32:26.126Z,54.74
2019-03-28T09:34:54.839Z,54.93
2019-03-28T09:37:23.597Z,54.75
2019-03-28T09:39:52.315Z,53.96
2019-03-28T09:42:21.025Z,53.54
2019-03-28T09:44:57.097Z,53.79
2019-03-28T09:47:25.816Z,54.00
2019-03-28T09:49:57.978Z,53.76
2019-03-28T09:52:26.650Z,53.52
2019-03-28T09:54:55.357Z,53.78
2019-03-28T09:57:24.129Z,53.59
2019-03-28T09:59:52.842Z,53.75
2019-03-28T10:02:21.550Z,54.29
2019-03-28T10:04:56.949Z,53.83
2019-03-28T10:07:25.669Z,53.97
2019-03-28T10:09:57.568Z,54.40
2019-03-28T10:12:26.547Z,54.99
2019-03-28T10:14:55.267Z,55.70
2019-03-28T10:17:23.987Z,55.32
2019-03-28T10:19:52.697Z,55.24
2019-03-28T10:22:22.492Z,56.22
2019-03-28T10:24:51.561Z,56.23
2019-03-28T10:27:20.281Z,55.73
2019-03-28T10:29:49.012Z,55.96
2019-03-28T10:32:17.723Z,55.34
2019-03-28T10:34:46.482Z,56.59
2019-03-28T10:37:15.200Z,55.83
2019-03-28T10:39:43.934Z,53.92
2019-03-28T10:42:12.710Z,56.20
2019-03-28T10:44:41.418Z,55.83
2019-03-28T10:47:10.132Z,54.44
2019-03-28T10:49:38.907Z,53.00
2019-03-28T10:52:07.622Z,55.03
2019-03-28T10:54:36.330Z,55.49
2019-03-28T10:57:13.409Z,53.93
2019-03-28T10:59:35.527Z,54.28
2019-03-28T11:02:04.342Z,54.90
2019-03-28T11:04:33.095Z,54.98
2019-03-28T11:07:01.799Z,55.03
2019-03-28T11:09:30.510Z,53.18
2019-03-28T11:11:59.229Z,53.26
2019-03-28T11:14:27.944Z,52.57
2019-03-28T11:16:57.073Z,52.16
2019-03-28T11:19:25.842Z,52.15
2019-03-28T11:21:54.581Z,53.52
2019-03-28T11:24:23.299Z,53.95
2019-03-28T11:26:52.008Z,53.53
2019-03-28T11:29:20.798Z,53.09
2019-03-28T11:31:52.296Z,53.13
2019-03-28T11:34:20.051Z,53.14
2019-03-28T11:36:48.776Z,53.91
2019-03-28T11:39:17.494Z,53.86
2019-03-28T11:41:46.226Z,53.72
2019-03-28T11:44:14.954Z,53.96
2019-03-28T11:46:43.726Z,53.53
2019-03-28T11:49:12.453Z,53.22
2019-03-28T11:51:41.164Z,53.04
2019-03-28T11:54:09.914Z,51.82
2019-03-28T11:56:38.633Z,51.58
2019-03-28T11:59:07.347Z,51.47
2019-03-28T12:01:36.067Z,51.24
2019-03-28T12:04:04.795Z,51.23
2019-03-28T12:06:33.576Z,51.94
2019-03-28T12:09:02.366Z,52.22
2019-03-28T12:11:31.100Z,51.86
2019-03-28T12:13:59.904Z,50.99
2019-03-28T12:16:28.637Z,51.06
2019-03-28T12:18:57.404Z,50.54
2019-03-28T12:21:26.107Z,51.02
2019-03-28T12:23:54.817Z,49.63
2019-03-28T12:26:23.541Z,49.95
2019-03-28T12:28:52.258Z,49.10
2019-03-28T12:31:21.048Z,48.74
2019-03-28T12:33:49.772Z,49.06
2019-03-28T12:36:18.839Z,48.46
2019-03-28T12:38:47.932Z,47.57
2019-03-28T12:41:16.660Z,46.76
2019-03-28T12:43:45.370Z,46.21
2019-03-28T12:46:14.085Z,45.62
2019-03-28T12:48:42.806Z,45.47
2019-03-28T12:51:11.575Z,45.16
2019-03-28T12:53:40.286Z,44.85
2019-03-28T12:56:08.993Z,44.40
2019-03-28T12:58:37.717Z,44.03
2019-03-28T13:01:06.425Z,44.56
2019-03-28T13:03:45.441Z,44.21
2019-03-28T13:06:05.661Z,44.08
2019-03-28T13:08:34.379Z,44.88
2019-03-28T13:11:03.146Z,45.13
2019-03-28T13:13:31.859Z,45.15
2019-03-28T13:16:00.989Z,44.64
2019-03-28T13:18:29.718Z,45.66
2019-03-28T13:21:12.419Z,45.45
2019-03-28T13:23:28.911Z,45.96
2019-03-28T13:25:57.639Z,46.14
2019-03-28T13:28:26.368Z,46.27
2019-03-28T13:31:00.669Z,45.25
2019-03-28T13:33:29.373Z,45.91
2019-03-28T13:35:58.086Z,45.00
2019-03-28T13:38:26.805Z,45.38
2019-03-28T13:40:55.523Z,45.25
2019-03-28T13:43:24.270Z,45.27
2019-03-28T13:45:53.011Z,44.01
2019-03-28T13:48:21.738Z,44.44
2019-03-28T13:53:38.649Z,43.37
2019-03-28T13:55:59.610Z,43.13
2019-03-28T13:58:28.345Z,43.52
2019-03-28T14:00:57.055Z,43.43
2019-03-28T14:03:25.830Z,44.31
2019-03-28T14:05:54.570Z,43.88
2019-03-28T14:08:23.343Z,44.04
2019-03-28T14:10:52.073Z,45.08
2019-03-28T14:13:21.535Z,44.78
2019-03-28T14:15:58.263Z,44.47
2019-03-28T14:18:27.121Z,45.32
2019-03-28T14:20:55.835Z,44.50
2019-03-28T14:23:24.567Z,44.30
2019-03-28T14:25:53.290Z,43.56
2019-03-28T14:28:22.052Z,43.35
2019-03-28T14:30:50.775Z,42.92
2019-03-28T14:33:19.502Z,42.75
2019-03-28T14:35:48.226Z,43.21
2019-03-28T14:38:16.966Z,42.76
2019-03-28T14:40:45.745Z,42.81
2019-03-28T14:43:14.463Z,43.16
2019-03-28T14:45:43.177Z,43.53
2019-03-28T14:48:11.900Z,43.51
2019-03-28T14:50:41.371Z,43.47
2019-03-28T14:53:10.111Z,43.59
2019-03-28T14:55:38.887Z,43.15
2019-03-28T14:58:07.996Z,43.41
2019-03-28T15:01:00.040Z,43.29
2019-03-28T15:03:28.752Z,43.33
2019-03-28T15:05:58.594Z,43.71
2019-03-28T15:08:27.397Z,43.03
2019-03-28T15:10:56.117Z,42.97
2019-03-28T15:13:24.845Z,43.17
2019-03-28T15:15:53.556Z,42.31
2019-03-28T15:18:22.259Z,42.16
2019-03-28T15:20:57.296Z,42.02
2019-03-28T15:23:26.008Z,41.44
2019-03-28T15:25:54.721Z,41.40
2019-03-28T15:28:23.476Z,41.53
2019-03-28T15:30:52.256Z,41.76
2019-03-28T15:33:20.960Z,41.68
2019-03-28T15:35:56.538Z,42.06
2019-03-28T15:38:25.250Z,42.13
2019-03-28T15:40:57.257Z,41.96
2019-03-28T15:43:25.979Z,42.61
2019-03-28T15:45:54.692Z,42.43
2019-03-28T15:48:23.406Z,42.08
2019-03-28T15:50:52.147Z,42.18
2019-03-28T15:53:20.925Z,42.54
2019-03-28T15:55:49.635Z,43.04
2019-03-28T15:58:23.439Z,43.15
2019-03-28T16:00:48.786Z,43.07
2019-03-28T16:03:17.503Z,43.45
2019-03-28T16:05:57.559Z,43.52
2019-03-28T16:08:16.698Z,43.61
2019-03-28T16:10:45.410Z,43.94
2019-03-28T16:13:14.186Z,44.14
2019-03-28T16:15:42.917Z,43.79
2019-03-28T16:18:11.707Z,44.04
2019-03-28T16:20:40.440Z,44.17
2019-03-28T16:23:09.164Z,44.17
2019-03-28T16:25:37.948Z,44.20
2019-03-28T16:28:06.674Z,44.23
2019-03-28T16:30:37.489Z,44.26
2019-03-28T16:33:06.539Z,44.89
2019-03-28T16:35:35.248Z,45.03
2019-03-28T16:38:03.976Z,45.49
2019-03-28T16:40:32.697Z,45.77
2019-03-28T16:43:01.425Z,46.50
2019-03-28T16:45:30.197Z,47.33
2019-03-28T16:47:58.951Z,48.00
2019-03-28T16:50:27.668Z,48.55
2019-03-28T16:52:57.312Z,48.99
2019-03-28T16:55:26.869Z,49.51
2019-03-28T16:57:59.953Z,49.95
2019-03-28T17:00:36.735Z,50.45
2019-03-28T17:03:06.087Z,50.57
2019-03-28T17:05:34.914Z,50.60
2019-03-28T17:08:04.617Z,50.89
2019-03-28T17:10:44.406Z,51.38
2019-03-28T17:13:13.216Z,51.24
2019-03-28T17:15:41.968Z,51.65
2019-03-28T17:18:10.675Z,51.86
2019-03-28T17:20:39.389Z,52.22
2019-03-28T17:23:08.139Z,52.31
2019-03-28T17:25:36.853Z,52.75
2019-03-28T17:28:05.579Z,52.97
2019-03-28T17:30:34.300Z,53.27
2019-03-28T17:33:03.010Z,53.42
2019-03-28T17:35:31.762Z,53.39
2019-03-28T17:38:00.472Z,53.26
2019-03-28T17:40:29.180Z,53.34
2019-03-28T17:42:58.226Z,53.46
2019-03-28T17:45:26.940Z,53.40
2019-03-28T17:47:55.639Z,53.08
2019-03-28T17:50:24.349Z,53.24
2019-03-28T17:52:53.664Z,53.41
2019-03-28T17:55:22.606Z,53.27
2019-03-28T17:57:58.922Z,53.48
2019-03-28T18:00:28.305Z,53.61
2019-03-28T18:03:08.386Z,53.62
2019-03-28T18:05:27.431Z,53.49
2019-03-28T18:07:58.137Z,53.65
2019-03-28T18:10:26.844Z,53.69
2019-03-28T18:13:00.723Z,53.70
2019-03-28T18:15:29.417Z,53.75
2019-03-28T18:17:58.125Z,53.83
2019-03-28T18:20:26.839Z,53.73
2019-03-28T18:22:55.564Z,53.78
2019-03-28T18:25:24.378Z,53.75
2019-03-28T18:27:53.039Z,53.87
2019-03-28T18:30:22.247Z,53.74
2019-03-28T18:32:55.746Z,53.80
2019-03-28T18:35:24.445Z,53.82
2019-03-28T18:37:53.162Z,53.97
2019-03-28T18:40:21.886Z,53.85
2019-03-28T18:42:50.583Z,53.91
2019-03-28T18:45:19.436Z,53.92
2019-03-28T18:47:48.151Z,54.24
2019-03-28T18:50:17.074Z,54.07
2019-03-28T18:52:45.820Z,54.12
2019-03-28T18:55:15.326Z,53.97
2019-03-28T18:57:44.042Z,53.86
2019-03-28T19:00:13.586Z,54.18
2019-03-28T19:02:42.289Z,54.39
2019-03-28T19:05:19.800Z,54.42
2019-03-28T19:07:41.946Z,54.42
2019-03-28T19:10:11.242Z,54.30
2019-03-28T19:12:40.679Z,54.30
2019-03-28T19:15:10.386Z,53.99
2019-03-28T19:17:39.098Z,53.83
2019-03-28T19:20:10.041Z,53.60
2019-03-28T19:22:39.036Z,53.51
2019-03-28T19:25:09.530Z,53.22
2019-03-28T19:27:38.749Z,53.12
2019-03-28T19:30:09.458Z,53.36
2019-03-28T19:32:38.160Z,53.17
2019-03-28T19:35:09.285Z,53.40
2019-03-28T19:37:38.590Z,53.63
2019-03-28T19:40:09.150Z,53.59
2019-03-28T19:42:38.498Z,53.24
2019-03-28T19:45:07.505Z,53.59
2019-03-28T19:47:36.244Z,53.74
2019-03-28T19:50:07.989Z,53.40
2019-03-28T19:52:36.842Z,53.35
2019-03-28T19:55:07.352Z,52.57
2019-03-28T19:57:36.063Z,52.90
2019-03-28T20:00:07.635Z,53.84
2019-03-28T20:02:36.335Z,54.22
2019-03-28T20:05:07.410Z,54.46
2019-03-28T20:07:36.131Z,54.79
2019-03-28T20:10:15.790Z,55.08
2019-03-28T20:12:36.002Z,55.20
2019-03-28T20:15:08.038Z,53.08
2019-03-28T20:17:37.188Z,52.02
2019-03-28T20:20:07.107Z,51.76
2019-03-28T20:22:35.813Z,52.28
2019-03-28T20:25:07.034Z,53.60
2019-03-28T20:27:35.952Z,54.04
2019-03-28T20:30:06.162Z,54.42
2019-03-28T20:32:34.880Z,55.01
2019-03-28T20:35:03.686Z,55.07
2019-03-28T20:37:32.441Z,55.30
2019-03-28T20:40:01.149Z,55.16
2019-03-28T20:42:29.856Z,54.84
2019-03-28T20:44:59.501Z,55.04
2019-03-28T20:47:28.208Z,54.85
2019-03-28T20:50:01.470Z,54.86
2019-03-28T20:52:30.438Z,54.82
2019-03-28T20:54:59.737Z,54.64
2019-03-28T20:57:28.787Z,54.75
2019-03-28T20:59:58.531Z,54.52
2019-03-28T21:02:28.079Z,54.59
2019-03-28T21:04:56.791Z,55.93
2019-03-28T21:07:25.509Z,57.27
2019-03-28T21:09:57.483Z,57.76
2019-03-28T21:12:26.194Z,59.24
2019-03-28T21:14:58.364Z,60.07
2019-03-28T21:17:27.076Z,59.67
2019-03-28T21:19:55.785Z,59.13
2019-03-28T21:22:24.500Z,59.45
2019-03-28T21:24:53.212Z,60.14
2019-03-28T21:27:22.042Z,60.54
2019-03-28T21:29:51.103Z,58.63
2019-03-28T21:32:20.139Z,57.47
2019-03-28T21:34:48.856Z,56.94
2019-03-28T21:37:17.563Z,57.55
2019-03-28T21:39:46.313Z,58.66
2019-03-28T21:42:15.026Z,58.62
2019-03-28T21:44:43.734Z,59.67
2019-03-28T21:47:12.451Z,59.35
2019-03-28T21:49:41.152Z,58.93
2019-03-28T21:52:09.917Z,58.47
2019-03-28T21:54:38.629Z,59.09
2019-03-28T21:57:07.367Z,60.00
2019-03-28T21:59:36.093Z,59.88
2019-03-28T22:02:04.801Z,60.63
2019-03-28T22:04:33.505Z,60.45
2019-03-28T22:07:02.260Z,60.58
2019-03-28T22:09:30.962Z,60.42
2019-03-28T22:12:00.897Z,60.25
2019-03-28T22:14:30.020Z,60.23
2019-03-28T22:16:58.752Z,60.37
2019-03-28T22:19:27.452Z,60.21
2019-03-28T22:21:57.638Z,60.58
2019-03-28T22:24:26.350Z,61.51
2019-03-28T22:26:55.061Z,62.08
2019-03-28T22:29:23.804Z,62.39
2019-03-28T22:31:52.514Z,63.39
2019-03-28T22:34:21.317Z,63.70
2019-03-28T22:36:59.934Z,62.91
2019-03-28T22:39:28.634Z,62.85
2019-03-28T22:41:57.352Z,62.90
2019-03-28T22:44:26.075Z,63.04
2019-03-28T22:46:54.778Z,62.81
2019-03-28T22:49:23.550Z,61.30
2019-03-28T22:51:52.257Z,61.08
2019-03-28T22:54:20.957Z,60.78
2019-03-28T22:56:50.014Z,61.17
2019-03-28T22:59:18.889Z,61.14
2019-03-28T23:01:47.588Z,61.23
2019-03-28T23:04:16.453Z,61.09
2019-03-28T23:06:45.161Z,61.19
2019-03-28T23:09:13.908Z,61.66
2019-03-28T23:11:42.763Z,62.20
2019-03-28T23:14:11.501Z,62.58
2019-03-28T23:16:40.248Z,62.31
2019-03-28T23:19:11.879Z,61.61
2019-03-28T23:21:39.371Z,61.64
2019-03-28T23:24:08.078Z,61.74
2019-03-28T23:26:36.786Z,61.81
2019-03-28T23:29:05.529Z,61.69
2019-03-28T23:31:34.236Z,62.03
2019-03-28T23:34:02.945Z,62.58
2019-03-28T23:36:32.778Z,63.12
2019-03-28T23:39:01.560Z,63.35
2019-03-28T23:41:30.308Z,63.62
2019-03-28T23:43:59.019Z,63.37
2019-03-28T23:46:27.726Z,63.32
2019-03-28T23:48:57.661Z,63.61
2019-03-28T23:51:26.363Z,63.64
2019-03-28T23:53:58.300Z,64.00
2019-03-28T23:56:27.036Z,64.79
2019-03-28T23:58:55.752Z,65.09
